sensor_id;sensor_type;location;lat;lon;timestamp;P1;durP1;ratioP1;P2;durP2;ratioP2
13753;SDS011;6948;51.216;6.778;2023-05-29T00:01:07;3.33;;;2.73;;
13753;SDS011;6948;51.216;6.778;2023-05-29T00:03:34;5.93;;;3.20;;
13753;SDS011;6948;51.216;6.778;2023-05-29T00:06:01;5.93;;;3.40;;
13753;SDS011;6948;51.216;6.778;2023-05-29T00:08:27;5.80;;;3.13;;
13753;SDS011;6948;51.216;6.778;2023-05-29T00:10:53;4.13;;;3.10;;
13753;SDS011;6948;51.216;6.778;2023-05-29T00:13:19;5.23;;;3.10;;
13753;SDS011;6948;51.216;6.778;2023-05-29T00:15:45;5.67;;;3.50;;
13753;SDS011;6948;51.216;6.778;2023-05-29T00:18:11;4.37;;;3.33;;
13753;SDS011;6948;51.216;6.778;2023-05-29T00:20:37;4.13;;;3.13;;
13753;SDS011;6948;51.216;6.778;2023-05-29T00:23:03;5.33;;;3.10;;
13753;SDS011;6948;51.216;6.778;2023-05-29T00:25:30;5.27;;;3.30;;
13753;SDS011;6948;51.216;6.778;2023-05-29T00:27:56;5.20;;;3.20;;
13753;SDS011;6948;51.216;6.778;2023-05-29T00:30:22;5.10;;;3.03;;
13753;SDS011;6948;51.216;6.778;2023-05-29T00:32:48;5.57;;;2.93;;
13753;SDS011;6948;51.216;6.778;2023-05-29T00:35:13;4.87;;;3.10;;
13753;SDS011;6948;51.216;6.778;2023-05-29T00:37:39;4.87;;;2.83;;
13753;SDS011;6948;51.216;6.778;2023-05-29T00:40:05;7.17;;;3.10;;
13753;SDS011;6948;51.216;6.778;2023-05-29T00:42:32;4.67;;;2.90;;
13753;SDS011;6948;51.216;6.778;2023-05-29T00:44:58;4.93;;;2.93;;
13753;SDS011;6948;51.216;6.778;2023-05-29T00:47:23;5.30;;;2.87;;
13753;SDS011;6948;51.216;6.778;2023-05-29T00:49:49;5.50;;;3.17;;
13753;SDS011;6948;51.216;6.778;2023-05-29T00:52:16;6.53;;;3.07;;
13753;SDS011;6948;51.216;6.778;2023-05-29T00:54:44;4.13;;;3.07;;
13753;SDS011;6948;51.216;6.778;2023-05-29T00:57:12;3.87;;;2.90;;
13753;SDS011;6948;51.216;6.778;2023-05-29T00:59:38;3.37;;;2.90;;
13753;SDS011;6948;51.216;6.778;2023-05-29T01:02:06;3.67;;;3.20;;
13753;SDS011;6948;51.216;6.778;2023-05-29T01:04:32;4.13;;;3.17;;
13753;SDS011;6948;51.216;6.778;2023-05-29T01:07:00;7.30;;;3.53;;
13753;SDS011;6948;51.216;6.778;2023-05-29T01:09:29;4.40;;;3.00;;
13753;SDS011;6948;51.216;6.778;2023-05-29T01:14:58;5.13;;;3.07;;
13753;SDS011;6948;51.216;6.778;2023-05-29T01:17:47;6.00;;;3.23;;
13753;SDS011;6948;51.216;6.778;2023-05-29T01:28:20;6.67;;;3.40;;
13753;SDS011;6948;51.216;6.778;2023-05-29T01:30:48;4.60;;;3.23;;
13753;SDS011;6948;51.216;6.778;2023-05-29T01:33:15;6.63;;;3.30;;
13753;SDS011;6948;51.216;6.778;2023-05-29T01:35:41;5.57;;;3.33;;
13753;SDS011;6948;51.216;6.778;2023-05-29T01:38:07;9.30;;;3.60;;
13753;SDS011;6948;51.216;6.778;2023-05-29T01:40:32;3.93;;;3.23;;
13753;SDS011;6948;51.216;6.778;2023-05-29T01:42:58;6.40;;;3.57;;
13753;SDS011;6948;51.216;6.778;2023-05-29T01:45:25;6.57;;;3.53;;
13753;SDS011;6948;51.216;6.778;2023-05-29T01:47:51;6.60;;;3.43;;
13753;SDS011;6948;51.216;6.778;2023-05-29T01:50:17;7.67;;;3.70;;
13753;SDS011;6948;51.216;6.778;2023-05-29T01:52:43;8.63;;;3.63;;
13753;SDS011;6948;51.216;6.778;2023-05-29T01:55:09;7.17;;;3.50;;
13753;SDS011;6948;51.216;6.778;2023-05-29T01:57:35;7.17;;;3.70;;
13753;SDS011;6948;51.216;6.778;2023-05-29T02:00:02;8.83;;;3.67;;
13753;SDS011;6948;51.216;6.778;2023-05-29T02:02:36;12.73;;;3.80;;
13753;SDS011;6948;51.216;6.778;2023-05-29T02:05:03;10.00;;;3.63;;
13753;SDS011;6948;51.216;6.778;2023-05-29T02:07:31;5.23;;;3.43;;
13753;SDS011;6948;51.216;6.778;2023-05-29T02:09:57;8.67;;;4.00;;
13753;SDS011;6948;51.216;6.778;2023-05-29T02:12:22;6.20;;;3.50;;
13753;SDS011;6948;51.216;6.778;2023-05-29T02:14:48;11.50;;;3.50;;
13753;SDS011;6948;51.216;6.778;2023-05-29T02:17:14;7.00;;;3.63;;
13753;SDS011;6948;51.216;6.778;2023-05-29T02:19:40;9.07;;;3.60;;
13753;SDS011;6948;51.216;6.778;2023-05-29T02:22:05;9.23;;;3.90;;
13753;SDS011;6948;51.216;6.778;2023-05-29T02:24:32;7.90;;;3.60;;
13753;SDS011;6948;51.216;6.778;2023-05-29T02:26:58;8.77;;;3.37;;
13753;SDS011;6948;51.216;6.778;2023-05-29T02:29:23;7.10;;;3.40;;
13753;SDS011;6948;51.216;6.778;2023-05-29T02:31:49;10.43;;;3.60;;
13753;SDS011;6948;51.216;6.778;2023-05-29T02:34:15;8.43;;;3.53;;
13753;SDS011;6948;51.216;6.778;2023-05-29T02:36:40;6.70;;;3.90;;
13753;SDS011;6948;51.216;6.778;2023-05-29T02:39:06;8.53;;;3.80;;
13753;SDS011;6948;51.216;6.778;2023-05-29T02:41:32;7.57;;;3.67;;
13753;SDS011;6948;51.216;6.778;2023-05-29T02:43:58;9.30;;;3.67;;
13753;SDS011;6948;51.216;6.778;2023-05-29T02:46:23;9.33;;;4.23;;
13753;SDS011;6948;51.216;6.778;2023-05-29T02:48:49;7.67;;;3.87;;
13753;SDS011;6948;51.216;6.778;2023-05-29T02:51:15;10.03;;;4.23;;
13753;SDS011;6948;51.216;6.778;2023-05-29T02:53:40;7.83;;;3.40;;
13753;SDS011;6948;51.216;6.778;2023-05-29T02:56:07;9.80;;;3.53;;
13753;SDS011;6948;51.216;6.778;2023-05-29T02:58:34;7.57;;;3.43;;
13753;SDS011;6948;51.216;6.778;2023-05-29T03:01:01;11.03;;;3.37;;
13753;SDS011;6948;51.216;6.778;2023-05-29T03:03:28;9.27;;;3.90;;
13753;SDS011;6948;51.216;6.778;2023-05-29T03:05:54;10.73;;;3.63;;
13753;SDS011;6948;51.216;6.778;2023-05-29T03:08:20;10.50;;;3.97;;
13753;SDS011;6948;51.216;6.778;2023-05-29T03:10:46;9.43;;;3.37;;
13753;SDS011;6948;51.216;6.778;2023-05-29T03:13:12;9.27;;;3.43;;
13753;SDS011;6948;51.216;6.778;2023-05-29T03:15:38;8.53;;;3.73;;
13753;SDS011;6948;51.216;6.778;2023-05-29T03:18:04;9.93;;;3.40;;
13753;SDS011;6948;51.216;6.778;2023-05-29T03:20:30;9.67;;;3.50;;
13753;SDS011;6948;51.216;6.778;2023-05-29T03:22:55;11.83;;;4.07;;
13753;SDS011;6948;51.216;6.778;2023-05-29T03:25:22;9.23;;;3.23;;
13753;SDS011;6948;51.216;6.778;2023-05-29T03:27:48;13.43;;;3.90;;
13753;SDS011;6948;51.216;6.778;2023-05-29T03:30:13;11.77;;;3.93;;
13753;SDS011;6948;51.216;6.778;2023-05-29T03:32:39;9.83;;;3.60;;
13753;SDS011;6948;51.216;6.778;2023-05-29T03:35:05;10.77;;;3.53;;
13753;SDS011;6948;51.216;6.778;2023-05-29T03:37:31;13.60;;;3.63;;
13753;SDS011;6948;51.216;6.778;2023-05-29T03:39:57;12.17;;;3.53;;
13753;SDS011;6948;51.216;6.778;2023-05-29T03:42:22;11.20;;;3.77;;
13753;SDS011;6948;51.216;6.778;2023-05-29T03:44:48;14.13;;;3.67;;
13753;SDS011;6948;51.216;6.778;2023-05-29T03:47:13;12.30;;;3.47;;
13753;SDS011;6948;51.216;6.778;2023-05-29T03:49:39;13.93;;;4.20;;
13753;SDS011;6948;51.216;6.778;2023-05-29T03:52:05;15.07;;;4.10;;
13753;SDS011;6948;51.216;6.778;2023-05-29T03:54:31;10.83;;;3.33;;
13753;SDS011;6948;51.216;6.778;2023-05-29T03:56:57;10.80;;;3.20;;
13753;SDS011;6948;51.216;6.778;2023-05-29T03:59:23;14.87;;;3.63;;
13753;SDS011;6948;51.216;6.778;2023-05-29T04:01:48;14.17;;;3.57;;
13753;SDS011;6948;51.216;6.778;2023-05-29T04:04:14;12.40;;;3.60;;
13753;SDS011;6948;51.216;6.778;2023-05-29T04:06:39;10.50;;;3.70;;
13753;SDS011;6948;51.216;6.778;2023-05-29T04:09:06;9.97;;;3.80;;
13753;SDS011;6948;51.216;6.778;2023-05-29T04:11:32;12.17;;;4.10;;
13753;SDS011;6948;51.216;6.778;2023-05-29T04:13:59;17.53;;;4.07;;
13753;SDS011;6948;51.216;6.778;2023-05-29T04:16:25;11.90;;;3.33;;
13753;SDS011;6948;51.216;6.778;2023-05-29T04:18:52;15.80;;;3.67;;
13753;SDS011;6948;51.216;6.778;2023-05-29T04:21:17;12.10;;;3.20;;
13753;SDS011;6948;51.216;6.778;2023-05-29T04:23:43;12.93;;;4.00;;
13753;SDS011;6948;51.216;6.778;2023-05-29T04:26:08;11.43;;;3.47;;
13753;SDS011;6948;51.216;6.778;2023-05-29T04:28:35;12.40;;;3.57;;
13753;SDS011;6948;51.216;6.778;2023-05-29T04:31:02;14.60;;;3.63;;
13753;SDS011;6948;51.216;6.778;2023-05-29T04:33:28;12.30;;;3.70;;
13753;SDS011;6948;51.216;6.778;2023-05-29T04:35:54;13.23;;;3.90;;
13753;SDS011;6948;51.216;6.778;2023-05-29T04:38:20;12.30;;;4.03;;
13753;SDS011;6948;51.216;6.778;2023-05-29T04:40:50;11.00;;;3.60;;
13753;SDS011;6948;51.216;6.778;2023-05-29T04:43:17;14.90;;;3.90;;
13753;SDS011;6948;51.216;6.778;2023-05-29T04:45:42;11.60;;;3.43;;
13753;SDS011;6948;51.216;6.778;2023-05-29T04:48:08;15.53;;;4.40;;
13753;SDS011;6948;51.216;6.778;2023-05-29T04:50:34;14.53;;;3.70;;
13753;SDS011;6948;51.216;6.778;2023-05-29T04:53:01;14.07;;;4.07;;
13753;SDS011;6948;51.216;6.778;2023-05-29T04:55:27;15.07;;;4.23;;
13753;SDS011;6948;51.216;6.778;2023-05-29T04:57:53;16.37;;;4.03;;
13753;SDS011;6948;51.216;6.778;2023-05-29T05:00:19;13.53;;;3.87;;
13753;SDS011;6948;51.216;6.778;2023-05-29T05:02:45;15.57;;;4.20;;
13753;SDS011;6948;51.216;6.778;2023-05-29T05:05:11;14.53;;;3.90;;
13753;SDS011;6948;51.216;6.778;2023-05-29T05:07:37;14.93;;;3.83;;
13753;SDS011;6948;51.216;6.778;2023-05-29T05:10:04;12.70;;;3.80;;
13753;SDS011;6948;51.216;6.778;2023-05-29T05:12:30;14.63;;;4.20;;
13753;SDS011;6948;51.216;6.778;2023-05-29T05:14:55;17.50;;;4.10;;
13753;SDS011;6948;51.216;6.778;2023-05-29T05:17:21;12.17;;;3.80;;
13753;SDS011;6948;51.216;6.778;2023-05-29T05:19:47;12.40;;;3.90;;
13753;SDS011;6948;51.216;6.778;2023-05-29T05:22:14;12.33;;;3.77;;
13753;SDS011;6948;51.216;6.778;2023-05-29T05:24:41;17.67;;;4.20;;
13753;SDS011;6948;51.216;6.778;2023-05-29T05:27:06;14.40;;;3.90;;
13753;SDS011;6948;51.216;6.778;2023-05-29T05:29:32;13.50;;;3.77;;
13753;SDS011;6948;51.216;6.778;2023-05-29T05:31:57;12.17;;;3.53;;
13753;SDS011;6948;51.216;6.778;2023-05-29T05:34:23;13.67;;;4.07;;
13753;SDS011;6948;51.216;6.778;2023-05-29T05:36:49;11.10;;;3.40;;
13753;SDS011;6948;51.216;6.778;2023-05-29T05:39:15;12.30;;;3.47;;
13753;SDS011;6948;51.216;6.778;2023-05-29T05:41:40;11.23;;;3.87;;
13753;SDS011;6948;51.216;6.778;2023-05-29T05:44:06;13.50;;;3.93;;
13753;SDS011;6948;51.216;6.778;2023-05-29T05:46:32;12.27;;;3.60;;
13753;SDS011;6948;51.216;6.778;2023-05-29T05:48:57;16.37;;;4.03;;
13753;SDS011;6948;51.216;6.778;2023-05-29T05:51:24;12.20;;;4.00;;
13753;SDS011;6948;51.216;6.778;2023-05-29T05:53:49;12.03;;;3.47;;
13753;SDS011;6948;51.216;6.778;2023-05-29T05:56:15;11.53;;;3.73;;
13753;SDS011;6948;51.216;6.778;2023-05-29T05:58:41;10.20;;;3.37;;
13753;SDS011;6948;51.216;6.778;2023-05-29T06:01:07;14.23;;;3.93;;
13753;SDS011;6948;51.216;6.778;2023-05-29T06:03:33;10.47;;;3.50;;
13753;SDS011;6948;51.216;6.778;2023-05-29T06:05:59;13.30;;;3.83;;
13753;SDS011;6948;51.216;6.778;2023-05-29T06:08:25;10.80;;;3.50;;
13753;SDS011;6948;51.216;6.778;2023-05-29T06:10:51;9.50;;;3.47;;
13753;SDS011;6948;51.216;6.778;2023-05-29T06:13:17;13.93;;;3.90;;
13753;SDS011;6948;51.216;6.778;2023-05-29T06:15:43;13.10;;;4.17;;
13753;SDS011;6948;51.216;6.778;2023-05-29T06:18:09;13.80;;;4.07;;
13753;SDS011;6948;51.216;6.778;2023-05-29T06:20:34;14.20;;;4.10;;
13753;SDS011;6948;51.216;6.778;2023-05-29T06:23:01;15.20;;;4.00;;
13753;SDS011;6948;51.216;6.778;2023-05-29T06:25:27;14.40;;;3.77;;
13753;SDS011;6948;51.216;6.778;2023-05-29T06:27:58;11.63;;;3.50;;
13753;SDS011;6948;51.216;6.778;2023-05-29T06:30:24;12.43;;;3.90;;
13753;SDS011;6948;51.216;6.778;2023-05-29T06:32:50;11.53;;;3.37;;
13753;SDS011;6948;51.216;6.778;2023-05-29T06:35:16;11.60;;;3.83;;
13753;SDS011;6948;51.216;6.778;2023-05-29T06:37:42;12.37;;;3.60;;
13753;SDS011;6948;51.216;6.778;2023-05-29T06:40:07;13.30;;;3.80;;
13753;SDS011;6948;51.216;6.778;2023-05-29T06:42:33;15.30;;;4.00;;
13753;SDS011;6948;51.216;6.778;2023-05-29T06:44:59;11.07;;;3.63;;
13753;SDS011;6948;51.216;6.778;2023-05-29T06:47:25;15.63;;;3.90;;
13753;SDS011;6948;51.216;6.778;2023-05-29T06:49:51;10.63;;;3.33;;
13753;SDS011;6948;51.216;6.778;2023-05-29T06:52:17;14.57;;;4.20;;
13753;SDS011;6948;51.216;6.778;2023-05-29T06:54:42;12.70;;;3.80;;
13753;SDS011;6948;51.216;6.778;2023-05-29T06:57:08;12.97;;;3.93;;
13753;SDS011;6948;51.216;6.778;2023-05-29T06:59:33;14.70;;;4.20;;
13753;SDS011;6948;51.216;6.778;2023-05-29T07:01:59;11.27;;;3.33;;
13753;SDS011;6948;51.216;6.778;2023-05-29T07:04:25;12.10;;;3.87;;
13753;SDS011;6948;51.216;6.778;2023-05-29T07:06:51;11.70;;;3.87;;
13753;SDS011;6948;51.216;6.778;2023-05-29T07:09:16;13.63;;;3.60;;
13753;SDS011;6948;51.216;6.778;2023-05-29T07:11:42;12.43;;;3.73;;
13753;SDS011;6948;51.216;6.778;2023-05-29T07:14:07;12.13;;;3.87;;
13753;SDS011;6948;51.216;6.778;2023-05-29T07:16:33;13.57;;;3.93;;
13753;SDS011;6948;51.216;6.778;2023-05-29T07:18:59;11.30;;;3.93;;
13753;SDS011;6948;51.216;6.778;2023-05-29T07:21:25;12.00;;;3.67;;
13753;SDS011;6948;51.216;6.778;2023-05-29T07:23:50;10.03;;;3.80;;
13753;SDS011;6948;51.216;6.778;2023-05-29T07:26:16;14.53;;;4.30;;
13753;SDS011;6948;51.216;6.778;2023-05-29T07:28:41;10.20;;;3.67;;
13753;SDS011;6948;51.216;6.778;2023-05-29T07:31:07;12.17;;;3.60;;
13753;SDS011;6948;51.216;6.778;2023-05-29T07:33:33;12.67;;;4.10;;
13753;SDS011;6948;51.216;6.778;2023-05-29T07:35:59;13.00;;;3.97;;
13753;SDS011;6948;51.216;6.778;2023-05-29T07:38:24;14.47;;;3.60;;
13753;SDS011;6948;51.216;6.778;2023-05-29T07:40:50;12.17;;;4.10;;
13753;SDS011;6948;51.216;6.778;2023-05-29T07:43:16;9.90;;;4.37;;
13753;SDS011;6948;51.216;6.778;2023-05-29T07:45:41;15.10;;;4.27;;
13753;SDS011;6948;51.216;6.778;2023-05-29T07:48:07;10.23;;;3.90;;
13753;SDS011;6948;51.216;6.778;2023-05-29T07:50:32;11.53;;;4.00;;
13753;SDS011;6948;51.216;6.778;2023-05-29T07:52:59;13.73;;;3.80;;
13753;SDS011;6948;51.216;6.778;2023-05-29T07:55:25;13.40;;;3.63;;
13753;SDS011;6948;51.216;6.778;2023-05-29T07:57:51;10.13;;;3.80;;
13753;SDS011;6948;51.216;6.778;2023-05-29T08:00:16;11.20;;;3.57;;
13753;SDS011;6948;51.216;6.778;2023-05-29T08:02:42;14.10;;;3.87;;
13753;SDS011;6948;51.216;6.778;2023-05-29T08:05:08;9.53;;;3.70;;
13753;SDS011;6948;51.216;6.778;2023-05-29T08:07:34;11.87;;;3.73;;
13753;SDS011;6948;51.216;6.778;2023-05-29T08:10:01;13.43;;;3.90;;
13753;SDS011;6948;51.216;6.778;2023-05-29T08:12:27;13.37;;;3.83;;
13753;SDS011;6948;51.216;6.778;2023-05-29T08:14:53;12.57;;;4.10;;
13753;SDS011;6948;51.216;6.778;2023-05-29T08:17:19;10.07;;;3.83;;
13753;SDS011;6948;51.216;6.778;2023-05-29T08:19:44;12.43;;;3.73;;
13753;SDS011;6948;51.216;6.778;2023-05-29T08:22:12;14.33;;;4.47;;
13753;SDS011;6948;51.216;6.778;2023-05-29T08:24:38;11.13;;;3.70;;
13753;SDS011;6948;51.216;6.778;2023-05-29T08:27:04;12.73;;;3.67;;
13753;SDS011;6948;51.216;6.778;2023-05-29T08:29:30;11.43;;;4.03;;
13753;SDS011;6948;51.216;6.778;2023-05-29T08:31:55;11.40;;;4.00;;
13753;SDS011;6948;51.216;6.778;2023-05-29T08:34:21;11.67;;;4.00;;
13753;SDS011;6948;51.216;6.778;2023-05-29T08:36:47;11.67;;;3.60;;
13753;SDS011;6948;51.216;6.778;2023-05-29T08:39:13;12.17;;;4.00;;
13753;SDS011;6948;51.216;6.778;2023-05-29T08:44:31;11.43;;;3.73;;
13753;SDS011;6948;51.216;6.778;2023-05-29T08:46:57;11.90;;;3.87;;
13753;SDS011;6948;51.216;6.778;2023-05-29T08:49:28;11.30;;;4.13;;
13753;SDS011;6948;51.216;6.778;2023-05-29T08:52:02;11.37;;;4.00;;
13753;SDS011;6948;51.216;6.778;2023-05-29T08:54:36;10.83;;;4.10;;
13753;SDS011;6948;51.216;6.778;2023-05-29T08:57:02;9.50;;;3.57;;
13753;SDS011;6948;51.216;6.778;2023-05-29T08:59:29;9.47;;;3.90;;
13753;SDS011;6948;51.216;6.778;2023-05-29T09:01:56;14.10;;;3.97;;
13753;SDS011;6948;51.216;6.778;2023-05-29T09:04:21;14.10;;;3.97;;
13753;SDS011;6948;51.216;6.778;2023-05-29T09:06:48;12.80;;;4.20;;
13753;SDS011;6948;51.216;6.778;2023-05-29T09:09:15;11.23;;;3.80;;
13753;SDS011;6948;51.216;6.778;2023-05-29T09:11:41;10.53;;;3.63;;
13753;SDS011;6948;51.216;6.778;2023-05-29T09:14:16;11.43;;;4.00;;
13753;SDS011;6948;51.216;6.778;2023-05-29T09:17:12;13.03;;;3.90;;
13753;SDS011;6948;51.216;6.778;2023-05-29T09:19:38;14.43;;;4.03;;
13753;SDS011;6948;51.216;6.778;2023-05-29T09:22:06;10.13;;;3.63;;
13753;SDS011;6948;51.216;6.778;2023-05-29T09:24:33;12.97;;;3.80;;
13753;SDS011;6948;51.216;6.778;2023-05-29T09:27:01;10.80;;;4.00;;
13753;SDS011;6948;51.216;6.778;2023-05-29T09:29:30;10.03;;;3.60;;
13753;SDS011;6948;51.216;6.778;2023-05-29T09:31:57;12.17;;;3.90;;
13753;SDS011;6948;51.216;6.778;2023-05-29T09:34:24;12.83;;;3.70;;
13753;SDS011;6948;51.216;6.778;2023-05-29T09:36:52;12.57;;;4.00;;
13753;SDS011;6948;51.216;6.778;2023-05-29T09:39:18;11.20;;;4.10;;
13753;SDS011;6948;51.216;6.778;2023-05-29T09:41:44;10.77;;;3.50;;
13753;SDS011;6948;51.216;6.778;2023-05-29T09:44:12;15.93;;;4.07;;
13753;SDS011;6948;51.216;6.778;2023-05-29T09:46:39;11.33;;;3.77;;
13753;SDS011;6948;51.216;6.778;2023-05-29T09:49:10;10.03;;;3.57;;
13753;SDS011;6948;51.216;6.778;2023-05-29T09:51:37;13.83;;;4.00;;
13753;SDS011;6948;51.216;6.778;2023-05-29T09:54:19;13.50;;;4.10;;
13753;SDS011;6948;51.216;6.778;2023-05-29T09:56:45;13.87;;;3.77;;
13753;SDS011;6948;51.216;6.778;2023-05-29T09:59:12;12.97;;;3.90;;
13753;SDS011;6948;51.216;6.778;2023-05-29T10:01:40;10.10;;;3.50;;
13753;SDS011;6948;51.216;6.778;2023-05-29T10:04:07;13.00;;;4.10;;
13753;SDS011;6948;51.216;6.778;2023-05-29T10:06:35;14.40;;;3.93;;
13753;SDS011;6948;51.216;6.778;2023-05-29T10:09:07;9.57;;;3.40;;
13753;SDS011;6948;51.216;6.778;2023-05-29T10:11:35;11.37;;;4.07;;
13753;SDS011;6948;51.216;6.778;2023-05-29T10:14:03;12.50;;;3.90;;
13753;SDS011;6948;51.216;6.778;2023-05-29T10:16:32;8.00;;;3.37;;
13753;SDS011;6948;51.216;6.778;2023-05-29T10:19:02;14.30;;;4.00;;
13753;SDS011;6948;51.216;6.778;2023-05-29T10:21:32;10.83;;;3.87;;
13753;SDS011;6948;51.216;6.778;2023-05-29T10:24:05;12.07;;;4.10;;
13753;SDS011;6948;51.216;6.778;2023-05-29T10:26:34;9.63;;;3.83;;
13753;SDS011;6948;51.216;6.778;2023-05-29T10:29:20;12.80;;;3.83;;
13753;SDS011;6948;51.216;6.778;2023-05-29T10:32:01;10.33;;;3.80;;
13753;SDS011;6948;51.216;6.778;2023-05-29T10:37:18;14.53;;;4.10;;
13753;SDS011;6948;51.216;6.778;2023-05-29T10:40:02;9.20;;;3.53;;
13753;SDS011;6948;51.216;6.778;2023-05-29T10:42:48;8.40;;;3.67;;
13753;SDS011;6948;51.216;6.778;2023-05-29T10:51:05;11.83;;;3.83;;
13753;SDS011;6948;51.216;6.778;2023-05-29T10:53:33;11.90;;;3.90;;
13753;SDS011;6948;51.216;6.778;2023-05-29T10:55:59;9.73;;;3.60;;
13753;SDS011;6948;51.216;6.778;2023-05-29T10:58:26;11.57;;;3.70;;
13753;SDS011;6948;51.216;6.778;2023-05-29T11:00:53;10.97;;;3.60;;
13753;SDS011;6948;51.216;6.778;2023-05-29T11:03:23;12.97;;;3.80;;
13753;SDS011;6948;51.216;6.778;2023-05-29T11:06:06;11.90;;;3.80;;
13753;SDS011;6948;51.216;6.778;2023-05-29T11:11:30;9.33;;;3.93;;
13753;SDS011;6948;51.216;6.778;2023-05-29T11:14:01;11.03;;;3.97;;
13753;SDS011;6948;51.216;6.778;2023-05-29T11:19:06;13.33;;;4.27;;
13753;SDS011;6948;51.216;6.778;2023-05-29T11:24:40;13.77;;;3.63;;
13753;SDS011;6948;51.216;6.778;2023-05-29T11:27:06;9.13;;;3.23;;
13753;SDS011;6948;51.216;6.778;2023-05-29T11:29:33;11.60;;;3.43;;
13753;SDS011;6948;51.216;6.778;2023-05-29T11:32:01;9.90;;;3.60;;
13753;SDS011;6948;51.216;6.778;2023-05-29T11:34:30;10.10;;;4.07;;
13753;SDS011;6948;51.216;6.778;2023-05-29T11:36:58;9.23;;;3.57;;
13753;SDS011;6948;51.216;6.778;2023-05-29T11:39:24;9.97;;;3.33;;
13753;SDS011;6948;51.216;6.778;2023-05-29T11:41:51;10.93;;;3.50;;
13753;SDS011;6948;51.216;6.778;2023-05-29T11:44:17;9.60;;;3.63;;
13753;SDS011;6948;51.216;6.778;2023-05-29T11:46:43;8.63;;;3.40;;
13753;SDS011;6948;51.216;6.778;2023-05-29T11:49:09;8.73;;;3.23;;
13753;SDS011;6948;51.216;6.778;2023-05-29T11:51:35;11.60;;;3.63;;
13753;SDS011;6948;51.216;6.778;2023-05-29T11:54:01;12.87;;;3.20;;
13753;SDS011;6948;51.216;6.778;2023-05-29T11:56:27;8.70;;;3.27;;
13753;SDS011;6948;51.216;6.778;2023-05-29T11:58:54;11.27;;;3.63;;
13753;SDS011;6948;51.216;6.778;2023-05-29T12:01:22;9.97;;;3.67;;
13753;SDS011;6948;51.216;6.778;2023-05-29T12:03:49;13.37;;;3.50;;
13753;SDS011;6948;51.216;6.778;2023-05-29T12:06:15;12.27;;;4.17;;
13753;SDS011;6948;51.216;6.778;2023-05-29T12:08:41;11.43;;;3.70;;
13753;SDS011;6948;51.216;6.778;2023-05-29T12:11:07;12.03;;;4.20;;
13753;SDS011;6948;51.216;6.778;2023-05-29T12:13:33;10.53;;;3.40;;
13753;SDS011;6948;51.216;6.778;2023-05-29T12:16:01;8.03;;;3.40;;
13753;SDS011;6948;51.216;6.778;2023-05-29T12:18:30;7.97;;;3.20;;
13753;SDS011;6948;51.216;6.778;2023-05-29T12:20:57;9.00;;;3.30;;
13753;SDS011;6948;51.216;6.778;2023-05-29T12:23:24;9.60;;;3.90;;
13753;SDS011;6948;51.216;6.778;2023-05-29T12:25:50;10.47;;;3.60;;
13753;SDS011;6948;51.216;6.778;2023-05-29T12:28:18;9.50;;;3.77;;
13753;SDS011;6948;51.216;6.778;2023-05-29T12:30:45;9.17;;;3.50;;
13753;SDS011;6948;51.216;6.778;2023-05-29T12:33:31;7.57;;;3.40;;
13753;SDS011;6948;51.216;6.778;2023-05-29T12:36:01;10.53;;;3.50;;
13753;SDS011;6948;51.216;6.778;2023-05-29T12:38:28;12.93;;;3.17;;
13753;SDS011;6948;51.216;6.778;2023-05-29T12:40:54;8.97;;;3.57;;
13753;SDS011;6948;51.216;6.778;2023-05-29T12:43:19;8.90;;;3.37;;
13753;SDS011;6948;51.216;6.778;2023-05-29T12:45:47;10.33;;;3.27;;
13753;SDS011;6948;51.216;6.778;2023-05-29T12:48:20;9.87;;;3.83;;
13753;SDS011;6948;51.216;6.778;2023-05-29T12:50:48;9.67;;;3.23;;
13753;SDS011;6948;51.216;6.778;2023-05-29T12:53:14;8.63;;;3.80;;
13753;SDS011;6948;51.216;6.778;2023-05-29T12:55:41;9.97;;;3.67;;
13753;SDS011;6948;51.216;6.778;2023-05-29T12:58:09;9.90;;;3.23;;
13753;SDS011;6948;51.216;6.778;2023-05-29T13:00:37;8.33;;;3.00;;
13753;SDS011;6948;51.216;6.778;2023-05-29T13:03:05;9.97;;;3.30;;
13753;SDS011;6948;51.216;6.778;2023-05-29T13:05:31;10.27;;;3.50;;
13753;SDS011;6948;51.216;6.778;2023-05-29T13:07:57;10.73;;;3.60;;
13753;SDS011;6948;51.216;6.778;2023-05-29T13:10:23;8.17;;;3.57;;
13753;SDS011;6948;51.216;6.778;2023-05-29T13:12:49;8.77;;;3.60;;
13753;SDS011;6948;51.216;6.778;2023-05-29T13:15:19;7.43;;;3.23;;
13753;SDS011;6948;51.216;6.778;2023-05-29T13:17:46;9.33;;;3.23;;
13753;SDS011;6948;51.216;6.778;2023-05-29T13:20:12;7.90;;;3.37;;
13753;SDS011;6948;51.216;6.778;2023-05-29T13:22:38;10.43;;;3.57;;
13753;SDS011;6948;51.216;6.778;2023-05-29T13:25:05;8.33;;;3.57;;
13753;SDS011;6948;51.216;6.778;2023-05-29T13:27:33;9.30;;;3.67;;
13753;SDS011;6948;51.216;6.778;2023-05-29T13:30:00;10.00;;;3.70;;
13753;SDS011;6948;51.216;6.778;2023-05-29T13:32:26;9.90;;;3.60;;
13753;SDS011;6948;51.216;6.778;2023-05-29T13:34:51;7.83;;;3.50;;
13753;SDS011;6948;51.216;6.778;2023-05-29T13:37:17;9.30;;;3.63;;
13753;SDS011;6948;51.216;6.778;2023-05-29T13:39:43;11.70;;;3.67;;
13753;SDS011;6948;51.216;6.778;2023-05-29T13:42:08;10.33;;;3.67;;
13753;SDS011;6948;51.216;6.778;2023-05-29T13:44:34;9.00;;;3.27;;
13753;SDS011;6948;51.216;6.778;2023-05-29T13:47:00;9.23;;;3.30;;
13753;SDS011;6948;51.216;6.778;2023-05-29T13:49:26;11.97;;;3.80;;
13753;SDS011;6948;51.216;6.778;2023-05-29T13:51:51;8.80;;;3.63;;
13753;SDS011;6948;51.216;6.778;2023-05-29T13:54:17;10.70;;;3.20;;
13753;SDS011;6948;51.216;6.778;2023-05-29T13:56:43;8.37;;;3.50;;
13753;SDS011;6948;51.216;6.778;2023-05-29T13:59:09;7.80;;;3.53;;
13753;SDS011;6948;51.216;6.778;2023-05-29T14:01:35;7.77;;;3.33;;
13753;SDS011;6948;51.216;6.778;2023-05-29T14:04:00;10.93;;;3.53;;
13753;SDS011;6948;51.216;6.778;2023-05-29T14:06:26;8.87;;;3.53;;
13753;SDS011;6948;51.216;6.778;2023-05-29T14:08:52;9.30;;;3.37;;
13753;SDS011;6948;51.216;6.778;2023-05-29T14:11:18;8.20;;;3.20;;
13753;SDS011;6948;51.216;6.778;2023-05-29T14:13:44;7.00;;;3.33;;
13753;SDS011;6948;51.216;6.778;2023-05-29T14:16:10;10.20;;;3.30;;
13753;SDS011;6948;51.216;6.778;2023-05-29T14:18:36;9.60;;;3.10;;
13753;SDS011;6948;51.216;6.778;2023-05-29T14:21:02;8.30;;;3.23;;
13753;SDS011;6948;51.216;6.778;2023-05-29T14:23:27;7.87;;;3.63;;
13753;SDS011;6948;51.216;6.778;2023-05-29T14:25:53;9.17;;;3.53;;
13753;SDS011;6948;51.216;6.778;2023-05-29T14:28:19;9.47;;;3.47;;
13753;SDS011;6948;51.216;6.778;2023-05-29T14:30:44;9.03;;;3.53;;
13753;SDS011;6948;51.216;6.778;2023-05-29T14:33:10;11.13;;;3.77;;
13753;SDS011;6948;51.216;6.778;2023-05-29T14:35:36;10.07;;;3.50;;
13753;SDS011;6948;51.216;6.778;2023-05-29T14:38:01;7.37;;;3.30;;
13753;SDS011;6948;51.216;6.778;2023-05-29T14:40:27;9.50;;;3.60;;
13753;SDS011;6948;51.216;6.778;2023-05-29T14:42:53;8.00;;;3.17;;
13753;SDS011;6948;51.216;6.778;2023-05-29T14:45:19;11.87;;;3.80;;
13753;SDS011;6948;51.216;6.778;2023-05-29T14:47:44;7.83;;;3.80;;
13753;SDS011;6948;51.216;6.778;2023-05-29T14:50:10;11.43;;;3.33;;
13753;SDS011;6948;51.216;6.778;2023-05-29T14:52:36;7.30;;;3.30;;
13753;SDS011;6948;51.216;6.778;2023-05-29T14:55:03;7.57;;;3.40;;
13753;SDS011;6948;51.216;6.778;2023-05-29T14:57:29;7.47;;;3.73;;
13753;SDS011;6948;51.216;6.778;2023-05-29T14:59:58;8.27;;;3.47;;
13753;SDS011;6948;51.216;6.778;2023-05-29T15:02:24;6.57;;;3.47;;
13753;SDS011;6948;51.216;6.778;2023-05-29T15:04:49;7.57;;;2.90;;
13753;SDS011;6948;51.216;6.778;2023-05-29T15:07:16;8.33;;;3.40;;
13753;SDS011;6948;51.216;6.778;2023-05-29T15:09:41;8.30;;;3.40;;
13753;SDS011;6948;51.216;6.778;2023-05-29T15:12:07;8.83;;;3.60;;
13753;SDS011;6948;51.216;6.778;2023-05-29T15:14:33;7.60;;;3.03;;
13753;SDS011;6948;51.216;6.778;2023-05-29T15:16:59;11.67;;;3.50;;
13753;SDS011;6948;51.216;6.778;2023-05-29T15:19:25;9.63;;;3.43;;
13753;SDS011;6948;51.216;6.778;2023-05-29T15:21:51;7.13;;;3.00;;